Time;durP1;ratioP1;P1;durP2;ratioP2;P2;SDS_P1;SDS_P2;PMS_P1;PMS_P2;Temp;Humidity;BMP_temperature;BMP_pressure;BME280_temperature;BME280_humidity;BME280_pressure;Samples;Min_cycle;Max_cycle;Signal;HPM_P1;HPM_P2
2022/08/13 00:01:05;;;;;;;4.55;2.22;;;24.70;60.40;;;;;;4065672;29;20036;-63
2022/08/13 00:03:12;;;;;;;3.42;2.30;;;24.60;59.70;;;;;;4065207;29;20328;-62
2022/08/13 00:05:13;;;;;;;4.82;2.65;;;24.60;59.50;;;;;;4066009;29;20040;-63
2022/08/13 00:07:14;;;;;;;4.53;2.30;;;24.60;59.00;;;;;;4066718;29;20588;-63
2022/08/13 00:09:15;;;;;;;4.85;2.33;;;24.50;58.90;;;;;;4066369;29;20095;-63
2022/08/13 00:12:56;;;;;;;2.95;2.03;;;24.40;59.30;;;;;;4070828;29;20058;-63
2022/08/13 00:13:36;;;;;;;2.85;1.83;;;24.40;59.30;;;;;;4065325;29;20047;-63
2022/08/13 00:15:40;;;;;;;3.08;2.00;;;24.30;59.80;;;;;;4070448;29;20052;-63
2022/08/13 00:17:42;;;;;;;3.53;2.30;;;24.20;60.20;;;;;;4069695;29;20036;-63
2022/08/13 00:19:48;;;;;;;4.13;2.25;;;24.20;60.60;;;;;;4070468;29;20052;-63
2022/08/13 00:21:50;;;;;;;4.85;2.22;;;24.10;61.20;;;;;;4069899;29;20058;-64
2022/08/13 00:23:57;;;;;;;3.65;2.05;;;24.10;61.70;;;;;;4065179;29;20051;-63
2022/08/13 00:25:58;;;;;;;5.30;2.25;;;24.10;62.50;;;;;;4064669;29;20024;-63
2022/08/13 00:28:02;;;;;;;4.03;2.00;;;24.10;63.90;;;;;;4065539;29;20040;-63
2022/08/13 00:30:08;;;;;;;4.35;2.20;;;24.10;63.40;;;;;;4065234;29;20032;-63
2022/08/13 00:32:09;;;;;;;4.97;2.08;;;24.10;64.00;;;;;;4063456;29;20047;-63
2022/08/13 00:34:09;;;;;;;4.32;2.17;;;24.10;62.60;;;;;;4064492;29;20050;-63
2022/08/13 00:36:12;;;;;;;4.13;2.25;;;24.10;62.90;;;;;;4064074;29;20044;-63
2022/08/13 00:38:16;;;;;;;2.80;2.20;;;24.00;63.00;;;;;;4065583;29;20395;-63
2022/08/13 00:40:17;;;;;;;2.72;1.90;;;24.00;63.30;;;;;;4064478;29;20509;-63
2022/08/13 00:42:23;;;;;;;3.10;2.03;;;24.00;63.40;;;;;;4063183;29;20059;-63
2022/08/13 00:44:23;;;;;;;3.30;2.00;;;24.00;63.40;;;;;;4063995;29;20088;-63
2022/08/13 00:46:25;;;;;;;2.92;1.85;;;24.00;64.00;;;;;;4066876;29;20468;-63
2022/08/13 00:48:42;;;;;;;3.03;1.80;;;23.90;62.90;;;;;;4068997;29;20036;-63
2022/08/13 00:50:43;;;;;;;3.22;1.90;;;23.90;63.10;;;;;;4065173;29;20033;-63
2022/08/13 00:52:44;;;;;;;2.75;2.30;;;23.90;62.50;;;;;;4066469;29;20219;-63
2022/08/13 00:54:48;;;;;;;6.50;1.85;;;23.80;62.30;;;;;;4067564;29;20040;-63
2022/08/13 00:56:52;;;;;;;2.78;1.90;;;23.80;61.80;;;;;;4069285;29;20032;-63
2022/08/13 00:58:52;;;;;;;4.63;2.50;;;23.80;61.60;;;;;;4065410;29;20483;-63
2022/08/13 01:00:56;;;;;;;2.88;1.98;;;23.80;61.80;;;;;;4064017;29;20048;-63
2022/08/13 01:02:58;;;;;;;2.78;1.60;;;23.80;61.60;;;;;;4064469;29;20043;-63
2022/08/13 01:05:00;;;;;;;2.35;1.80;;;23.80;61.50;;;;;;4065953;29;20040;-63
2022/08/13 01:07:02;;;;;;;4.63;1.85;;;23.70;63.00;;;;;;4065768;29;20059;-63
2022/08/13 01:09:04;;;;;;;3.97;1.77;;;23.70;62.60;;;;;;4065922;29;20040;-63
2022/08/13 01:11:08;;;;;;;2.83;2.30;;;23.70;62.90;;;;;;4063198;29;20616;-63
2022/08/13 01:13:11;;;;;;;2.60;1.80;;;23.60;62.20;;;;;;4064326;29;20082;-63
2022/08/13 01:15:12;;;;;;;2.40;2.00;;;23.60;62.60;;;;;;4064685;29;20395;-64
2022/08/13 01:17:13;;;;;;;4.28;1.85;;;23.60;61.90;;;;;;4065554;29;20099;-64
2022/08/13 01:19:13;;;;;;;3.20;1.90;;;23.60;61.90;;;;;;4065425;29;20070;-64
2022/08/13 01:21:25;;;;;;;3.55;2.28;;;23.50;63.40;;;;;;4063721;29;20051;-63
2022/08/13 01:23:28;;;;;;;2.70;1.98;;;23.50;64.20;;;;;;4064219;29;20103;-64
2022/08/13 01:25:30;;;;;;;3.22;2.25;;;23.50;63.40;;;;;;4064543;29;20447;-63
2022/08/13 01:27:31;;;;;;;3.75;1.90;;;23.40;63.30;;;;;;4065111;29;20036;-63
2022/08/13 01:29:32;;;;;;;2.53;1.98;;;23.40;63.20;;;;;;4065464;29;20127;-63
2022/08/13 01:31:34;;;;;;;3.10;2.20;;;23.40;63.10;;;;;;4063863;29;20458;-63
2022/08/13 01:33:35;;;;;;;3.55;2.33;;;23.30;63.70;;;;;;4065148;29;20044;-63
2022/08/13 01:35:37;;;;;;;3.33;2.13;;;23.30;63.80;;;;;;4065513;29;20040;-63
2022/08/13 01:37:39;;;;;;;3.65;2.03;;;23.30;63.50;;;;;;4065315;29;20484;-63
2022/08/13 01:39:39;;;;;;;2.50;1.85;;;23.30;63.00;;;;;;4063511;29;20091;-63
2022/08/13 01:41:40;;;;;;;6.10;2.47;;;23.20;64.20;;;;;;4063381;29;20504;-63
2022/08/13 01:43:41;;;;;;;2.70;2.22;;;23.20;63.70;;;;;;4064461;29;20032;-63
2022/08/13 01:45:44;;;;;;;4.75;2.10;;;23.20;66.00;;;;;;4064164;29;20036;-63
2022/08/13 01:52:25;;;;;;;5.43;2.10;;;23.20;65.00;;;;;;4063393;29;20848;-64
2022/08/13 01:54:27;;;;;;;3.38;2.20;;;23.20;65.20;;;;;;4064405;29;20038;-63
2022/08/13 01:56:29;;;;;;;3.30;1.88;;;23.10;65.40;;;;;;4064208;29;20483;-63
2022/08/13 01:58:30;;;;;;;;;;;23.10;65.10;;;;;;4065165;29;20043;-63
2022/08/13 02:00:30;;;;;;;5.65;2.03;;;23.10;65.80;;;;;;4064079;29;19919;-63
2022/08/13 02:02:31;;;;;;;3.63;2.05;;;23.00;66.20;;;;;;4063757;29;20060;-63
2022/08/13 02:04:32;;;;;;;3.70;2.17;;;23.00;66.60;;;;;;4064530;29;20035;-63
2022/08/13 02:06:34;;;;;;;3.75;2.05;;;23.00;65.90;;;;;;4063911;29;20500;-63
2022/08/13 02:08:40;;;;;;;2.70;1.90;;;23.00;65.40;;;;;;4064665;29;20039;-63
2022/08/13 02:10:43;;;;;;;4.30;1.77;;;23.00;65.40;;;;;;4063000;29;20032;-63
2022/08/13 02:12:46;;;;;;;2.70;2.00;;;22.90;65.70;;;;;;4063415;29;20056;-63
2022/08/13 02:14:47;;;;;;;3.85;2.30;;;22.90;65.40;;;;;;4064744;29;20035;-63
2022/08/13 02:16:48;;;;;;;3.35;2.08;;;22.90;66.00;;;;;;4063811;29;20060;-63
2022/08/13 02:18:52;;;;;;;3.22;2.17;;;22.90;66.80;;;;;;4064188;29;20420;-63
2022/08/13 02:20:58;;;;;;;3.22;1.55;;;22.90;67.30;;;;;;4063769;29;20036;-63
2022/08/13 02:23:00;;;;;;;3.47;1.90;;;22.80;67.80;;;;;;4063001;29;20044;-63
2022/08/13 02:25:01;;;;;;;3.72;1.80;;;22.80;65.70;;;;;;4064339;29;20028;-63
2022/08/13 02:27:01;;;;;;;3.55;2.20;;;22.80;67.10;;;;;;4063775;29;20433;-63
2022/08/13 02:29:04;;;;;;;2.80;1.90;;;22.80;67.90;;;;;;4064138;29;20044;-63
2022/08/13 02:31:07;;;;;;;3.50;1.88;;;22.80;68.40;;;;;;4063173;29;20043;-62
2022/08/13 02:33:08;;;;;;;4.43;2.17;;;22.80;67.40;;;;;;4063039;29;20039;-63
2022/08/13 02:35:09;;;;;;;3.55;1.90;;;22.70;66.50;;;;;;4063655;29;20050;-64
2022/08/13 02:37:11;;;;;;;4.05;2.30;;;22.70;65.80;;;;;;4063133;29;20088;-63
2022/08/13 02:39:11;;;;;;;2.53;1.90;;;22.70;66.90;;;;;;4063972;29;20066;-63
2022/08/13 02:43:32;;;;;;;3.40;1.98;;;22.60;66.40;;;;;;4062940;29;20071;-63
2022/08/13 02:45:32;;;;;;;2.40;1.83;;;22.60;66.80;;;;;;4063489;29;20542;-63
2022/08/13 02:47:33;;;;;;;3.58;2.00;;;22.60;67.90;;;;;;4063981;29;20028;-63
2022/08/13 02:49:36;;;;;;;4.07;2.03;;;22.60;68.50;;;;;;4063925;29;20035;-63
2022/08/13 02:51:38;;;;;;;2.88;1.83;;;22.50;67.90;;;;;;4060610;29;20052;-63
2022/08/13 02:53:40;;;;;;;3.47;2.00;;;22.50;69.40;;;;;;4078240;29;20047;-63
2022/08/13 02:55:41;;;;;;;;;;;22.50;69.40;;;;;;4062121;29;20028;-63
2022/08/13 02:57:42;;;;;;;2.65;1.80;;;22.50;70.00;;;;;;4064164;29;19995;-63
2022/08/13 02:59:43;;;;;;;2.95;1.90;;;22.50;68.70;;;;;;4063902;29;20093;-62
2022/08/13 03:01:45;;;;;;;3.47;2.17;;;22.40;67.40;;;;;;4062528;29;20046;-63
2022/08/13 03:03:46;;;;;;;3.10;1.80;;;22.40;66.90;;;;;;4063527;29;20506;-62
2022/08/13 03:05:46;;;;;;;2.90;2.25;;;22.40;67.40;;;;;;4063062;29;22448;-63
2022/08/13 03:07:48;;;;;;;3.75;1.95;;;22.40;67.50;;;;;;4063311;29;20048;-63
2022/08/13 03:09:49;;;;;;;2.53;1.83;;;22.40;67.60;;;;;;4064167;29;20127;-63
2022/08/13 03:11:50;;;;;;;4.43;2.10;;;22.40;68.40;;;;;;4062290;29;20566;-63
2022/08/13 03:14:02;;;;;;;3.58;2.00;;;22.30;68.40;;;;;;4058727;29;20126;-63
2022/08/13 03:16:04;;;;;;;2.92;2.13;;;22.30;67.60;;;;;;4060339;29;20040;-63
2022/08/13 03:18:05;;;;;;;2.85;2.00;;;22.30;69.10;;;;;;4063800;29;20050;-63
2022/08/13 03:20:08;;;;;;;6.10;2.00;;;22.30;70.70;;;;;;4063934;29;20039;-64
2022/08/13 03:22:08;;;;;;;3.15;2.00;;;22.30;69.10;;;;;;4063474;29;20040;-63
2022/08/13 03:24:17;;;;;;;3.35;2.08;;;22.30;68.40;;;;;;4063391;29;20510;-63
2022/08/13 03:26:21;;;;;;;2.75;2.03;;;22.20;68.40;;;;;;4063496;29;20041;-63
2022/08/13 03:28:23;;;;;;;3.33;2.03;;;22.20;68.20;;;;;;4064387;29;20043;-63
2022/08/13 03:30:24;;;;;;;5.25;2.00;;;22.20;68.20;;;;;;4063527;29;20099;-63
2022/08/13 03:32:25;;;;;;;3.63;2.47;;;22.20;69.10;;;;;;4063119;29;20120;-63
2022/08/13 03:34:26;;;;;;;4.00;2.25;;;22.10;69.40;;;;;;4063911;29;20048;-63
2022/08/13 03:36:27;;;;;;;6.63;2.30;;;22.20;70.00;;;;;;4062892;29;20103;-64
2022/08/13 03:38:28;;;;;;;2.70;2.00;;;22.10;68.40;;;;;;4063945;29;20431;-64
2022/08/13 03:41:11;;;;;;;3.50;2.10;;;22.00;68.10;;;;;;4063378;29;20128;-64
2022/08/13 03:42:52;;;;;;;5.00;2.22;;;22.00;68.10;;;;;;4041699;29;20096;-64
2022/08/13 03:44:54;;;;;;;3.83;2.17;;;22.00;68.20;;;;;;4048611;29;20040;-63
2022/08/13 03:46:55;;;;;;;2.75;2.00;;;22.00;69.60;;;;;;4048047;29;20381;-63
2022/08/13 03:48:55;;;;;;;3.88;2.30;;;21.90;68.50;;;;;;4048700;29;20033;-63
2022/08/13 03:51:00;;;;;;;3.38;2.10;;;21.90;68.50;;;;;;4047766;29;20037;-63
2022/08/13 03:53:04;;;;;;;3.58;2.20;;;21.90;68.90;;;;;;4047386;29;20124;-64
2022/08/13 03:55:11;;;;;;;4.53;2.22;;;21.80;68.80;;;;;;4048478;29;20043;-65
2022/08/13 03:57:12;;;;;;;4.38;2.40;;;21.80;68.50;;;;;;4048453;29;20427;-64
2022/08/13 03:59:13;;;;;;;3.47;2.42;;;21.80;69.80;;;;;;4048588;29;20099;-63
2022/08/13 04:01:15;;;;;;;3.95;2.30;;;21.80;69.30;;;;;;4046158;29;20052;-63
2022/08/13 04:03:28;;;;;;;4.10;2.55;;;21.70;68.60;;;;;;4059396;29;20042;-63
2022/08/13 04:05:30;;;;;;;2.47;1.98;;;21.70;68.70;;;;;;4047547;29;20161;-64
2022/08/13 04:07:31;;;;;;;;;;;21.70;68.80;;;;;;4050666;29;20499;-63
2022/08/13 04:09:31;;;;;;;7.65;2.13;;;21.70;68.60;;;;;;4050617;29;19918;-63
2022/08/13 04:11:32;;;;;;;3.08;2.08;;;21.60;69.10;;;;;;4060804;29;20448;-64
2022/08/13 04:13:39;;;;;;;3.50;1.90;;;21.60;69.00;;;;;;4046109;29;20033;-63
2022/08/13 04:15:42;;;;;;;3.63;2.20;;;21.60;68.70;;;;;;4046620;29;20099;-63
2022/08/13 04:17:42;;;;;;;3.20;2.15;;;21.50;69.40;;;;;;4047381;29;20051;-63
2022/08/13 04:19:43;;;;;;;3.50;2.25;;;21.50;69.70;;;;;;4050064;29;20044;-63
2022/08/13 04:21:43;;;;;;;3.60;2.38;;;21.50;69.40;;;;;;4047722;29;20027;-63
2022/08/13 04:23:46;;;;;;;4.13;2.10;;;21.40;69.50;;;;;;4047554;29;20052;-63
2022/08/13 04:25:49;;;;;;;3.10;2.25;;;21.40;69.70;;;;;;4047726;29;20043;-63
2022/08/13 04:27:50;;;;;;;4.22;2.50;;;21.30;71.40;;;;;;4051572;29;20036;-63
2022/08/13 04:29:55;;;;;;;6.93;2.50;;;21.30;71.80;;;;;;4061061;29;20082;-63
2022/08/13 04:31:57;;;;;;;3.63;2.15;;;21.30;71.50;;;;;;4049875;29;20045;-63
2022/08/13 04:33:57;;;;;;;3.10;2.30;;;21.30;70.90;;;;;;4067481;29;20096;-65
2022/08/13 04:35:58;;;;;;;3.45;1.98;;;21.30;70.70;;;;;;4070840;29;20032;-64
2022/08/13 04:37:59;;;;;;;3.60;2.30;;;21.20;72.50;;;;;;4065445;29;20063;-63
2022/08/13 04:39:59;;;;;;;2.85;2.28;;;21.20;72.40;;;;;;4065121;29;20040;-64
2022/08/13 04:42:00;;;;;;;2.72;1.95;;;21.20;72.00;;;;;;4065422;29;20047;-63
2022/08/13 04:44:00;;;;;;;3.63;2.08;;;21.20;73.90;;;;;;4063917;29;20109;-64
2022/08/13 04:46:01;;;;;;;3.35;2.45;;;21.20;72.50;;;;;;4065450;29;20032;-64
2022/08/13 04:48:09;;;;;;;3.20;2.20;;;21.20;72.80;;;;;;4066288;29;20036;-64
2022/08/13 04:50:10;;;;;;;3.60;2.25;;;21.20;72.50;;;;;;4065610;29;20047;-63
2022/08/13 04:52:11;;;;;;;2.92;1.75;;;21.20;72.00;;;;;;4065394;29;20086;-63
2022/08/13 04:54:12;;;;;;;2.63;2.05;;;21.20;72.00;;;;;;4065457;29;20119;-63
2022/08/13 04:56:12;;;;;;;7.97;2.40;;;21.20;72.50;;;;;;4065848;29;20028;-63
2022/08/13 04:58:13;;;;;;;3.33;1.77;;;21.30;71.90;;;;;;4064942;29;20511;-63
2022/08/13 05:00:14;;;;;;;3.30;2.25;;;21.20;71.90;;;;;;4065029;29;20024;-63
2022/08/13 05:02:17;;;;;;;3.00;1.98;;;21.20;73.00;;;;;;4065584;29;20096;-63
2022/08/13 05:04:17;;;;;;;3.35;2.22;;;21.20;72.40;;;;;;4065164;29;20045;-63
2022/08/13 05:06:21;;;;;;;3.85;2.17;;;21.20;72.50;;;;;;4065194;29;20031;-63
2022/08/13 05:08:23;;;;;;;2.45;1.55;;;21.20;72.00;;;;;;4065863;29;20033;-63
2022/08/13 05:10:23;;;;;;;3.15;2.20;;;21.20;72.00;;;;;;4065437;29;21277;-63
2022/08/13 05:12:24;;;;;;;3.80;2.08;;;21.20;72.00;;;;;;4064567;29;20048;-63
2022/08/13 05:14:25;;;;;;;3.05;2.25;;;21.20;72.10;;;;;;4063839;29;20043;-63
2022/08/13 05:16:25;;;;;;;2.80;1.98;;;21.20;72.20;;;;;;4066405;29;20032;-63
2022/08/13 05:18:29;;;;;;;3.75;2.00;;;21.20;72.10;;;;;;4067627;29;20044;-63
2022/08/13 05:20:29;;;;;;;3.22;2.17;;;21.10;72.20;;;;;;4064851;29;20035;-63
2022/08/13 05:22:30;;;;;;;3.40;2.35;;;21.10;72.80;;;;;;4063595;29;20029;-63
2022/08/13 05:24:30;;;;;;;2.55;2.08;;;21.00;73.20;;;;;;4064241;29;20487;-64
2022/08/13 05:26:31;;;;;;;3.40;2.10;;;21.00;73.60;;;;;;4065519;29;20043;-64
2022/08/13 05:28:32;;;;;;;2.30;1.80;;;21.00;74.10;;;;;;4049093;29;20142;-63
2022/08/13 05:30:34;;;;;;;2.35;1.95;;;21.10;74.70;;;;;;4066534;29;20528;-63
2022/08/13 05:32:38;;;;;;;5.70;2.33;;;21.10;74.70;;;;;;4064174;29;20040;-63
2022/08/13 05:34:39;;;;;;;5.38;2.22;;;21.10;74.50;;;;;;4064948;29;20044;-63
2022/08/13 05:36:42;;;;;;;3.67;2.08;;;21.10;74.30;;;;;;4065879;29;20044;-63
2022/08/13 05:38:43;;;;;;;3.10;2.08;;;21.10;75.00;;;;;;4066255;29;20115;-63
2022/08/13 05:40:43;;;;;;;7.18;3.05;;;21.10;76.40;;;;;;4070481;29;20385;-63
2022/08/13 05:42:44;;;;;;;3.92;2.58;;;21.10;77.30;;;;;;4064178;29;20444;-63
2022/08/13 05:44:48;;;;;;;5.15;2.00;;;21.00;77.60;;;;;;4068955;29;20470;-63
2022/08/13 05:46:49;;;;;;;4.63;2.25;;;21.00;78.30;;;;;;4066676;29;20059;-63
2022/08/13 05:48:56;;;;;;;3.70;2.17;;;21.00;78.60;;;;;;4068547;29;20024;-64
2022/08/13 05:50:59;;;;;;;3.60;1.73;;;21.00;78.70;;;;;;4066714;29;20028;-64
2022/08/13 05:53:08;;;;;;;4.72;2.60;;;21.00;77.50;;;;;;4064989;29;20056;-65
2022/08/13 05:55:11;;;;;;;4.55;2.00;;;21.00;77.30;;;;;;4072932;29;20036;-65
2022/08/13 05:57:11;;;;;;;5.13;2.72;;;21.00;77.70;;;;;;4065401;29;20020;-64
2022/08/13 06:03:24;;;;;;;4.03;2.05;;;21.10;77.30;;;;;;4066784;29;20052;-64
2022/08/13 06:03:51;;;;;;;3.50;1.88;;;21.20;77.70;;;;;;4064100;29;20091;-64
2022/08/13 06:05:56;;;;;;;4.18;1.98;;;21.20;76.10;;;;;;4063935;29;20103;-64
2022/08/13 06:07:57;;;;;;;4.93;1.92;;;21.20;75.20;;;;;;4064218;29;20091;-64
2022/08/13 06:09:58;;;;;;;3.35;2.08;;;21.30;74.80;;;;;;4065041;29;20036;-64
2022/08/13 06:11:59;;;;;;;3.95;1.75;;;21.30;74.90;;;;;;4064273;29;20494;-65
2022/08/13 06:14:00;;;;;;;5.60;2.17;;;21.40;74.70;;;;;;4064093;29;20103;-64
2022/08/13 06:16:03;;;;;;;6.05;2.70;;;21.50;75.10;;;;;;4063993;29;20099;-65
2022/08/13 06:18:05;;;;;;;2.05;1.48;;;21.60;73.80;;;;;;4064252;29;20451;-63
2022/08/13 06:20:06;;;;;;;3.05;1.75;;;21.70;74.20;;;;;;4065262;29;20039;-64
2022/08/13 06:22:06;;;;;;;3.05;1.85;;;21.80;73.70;;;;;;4063329;29;20040;-64
2022/08/13 06:24:10;;;;;;;3.20;1.85;;;21.90;73.80;;;;;;4065525;29;20036;-64
2022/08/13 06:26:15;;;;;;;3.58;2.05;;;22.00;73.40;;;;;;4065456;29;20407;-63
2022/08/13 06:28:18;;;;;;;2.55;1.77;;;22.00;72.50;;;;;;4066621;29;20035;-64
2022/08/13 06:30:18;;;;;;;3.75;1.83;;;22.10;72.60;;;;;;4067125;29;20033;-64
2022/08/13 06:32:20;;;;;;;2.65;1.38;;;22.20;74.00;;;;;;4063084;29;20063;-64
2022/08/13 06:34:22;;;;;;;5.28;1.92;;;22.30;72.10;;;;;;4062839;29;20124;-64
2022/08/13 06:36:29;;;;;;;3.72;1.70;;;22.40;73.00;;;;;;4064211;29;20040;-64
2022/08/13 06:38:32;;;;;;;4.80;1.90;;;22.60;72.00;;;;;;4059833;29;20522;-64
2022/08/13 06:40:35;;;;;;;3.47;1.70;;;22.90;71.00;;;;;;4064653;29;20040;-66
2022/08/13 06:42:36;;;;;;;4.28;2.00;;;23.30;69.20;;;;;;4063429;29;20543;-65
2022/08/13 06:44:39;;;;;;;3.58;1.90;;;23.80;67.30;;;;;;4063225;29;20407;-64
2022/08/13 06:46:40;;;;;;;3.95;2.10;;;24.20;66.90;;;;;;4065273;29;20059;-65
2022/08/13 06:48:41;;;;;;;3.17;1.88;;;24.70;64.70;;;;;;4058614;29;20044;-65
2022/08/13 06:50:42;;;;;;;5.75;2.03;;;25.00;66.70;;;;;;4062400;29;20044;-65
2022/08/13 06:52:42;;;;;;;2.95;1.75;;;25.50;62.80;;;;;;4062110;29;20036;-65
2022/08/13 06:54:43;;;;;;;4.07;1.80;;;25.90;63.10;;;;;;4063714;29;20734;-65
2022/08/13 06:56:45;;;;;;;1.83;1.38;;;26.30;60.90;;;;;;4063638;29;20387;-66
2022/08/13 06:58:51;;;;;;;3.20;1.88;;;26.80;60.30;;;;;;4059464;29;20124;-65
2022/08/13 07:00:53;;;;;;;2.55;1.55;;;27.20;58.30;;;;;;4064823;29;20043;-66
2022/08/13 07:02:54;;;;;;;1.80;1.40;;;27.70;57.60;;;;;;4047538;29;20484;-65
2022/08/13 07:04:56;;;;;;;5.88;1.70;;;28.10;58.40;;;;;;4067525;29;20112;-65
2022/08/13 07:06:57;;;;;;;;;;;28.60;56.50;;;;;;4064239;29;20056;-66
2022/08/13 07:08:59;;;;;;;3.35;1.83;;;28.80;55.10;;;;;;4065976;29;19941;-66
2022/08/13 07:13:19;;;;;;;2.28;1.70;;;29.30;54.30;;;;;;4063571;29;20039;-66
2022/08/13 07:15:21;;;;;;;2.20;1.65;;;29.40;53.00;;;;;;4062994;29;20048;-66
2022/08/13 07:17:26;;;;;;;2.67;1.77;;;29.60;54.00;;;;;;4063004;29;20488;-66
2022/08/13 07:19:27;;;;;;;4.70;2.10;;;29.70;53.50;;;;;;4065967;29;20040;-65
2022/08/13 07:21:29;;;;;;;2.17;1.42;;;29.80;52.80;;;;;;4062104;29;20091;-65
2022/08/13 07:23:30;;;;;;;2.25;1.50;;;29.90;54.00;;;;;;4063439;29;20059;-66
2022/08/13 07:25:30;;;;;;;2.03;1.50;;;30.00;53.20;;;;;;4066474;29;20032;-67
2022/08/13 07:27:32;;;;;;;2.58;1.80;;;30.00;53.70;;;;;;4063535;29;20044;-66
2022/08/13 07:29:35;;;;;;;3.08;1.50;;;30.10;52.30;;;;;;4064191;29;20430;-67
2022/08/13 07:31:41;;;;;;;5.63;1.63;;;30.10;52.20;;;;;;4063126;29;20048;-67
2022/08/13 07:33:51;;;;;;;2.88;1.75;;;30.20;52.80;;;;;;4065650;29;20098;-66
2022/08/13 07:35:52;;;;;;;2.53;1.35;;;30.20;52.00;;;;;;4066397;29;20265;-66
2022/08/13 07:37:53;;;;;;;3.33;1.80;;;30.20;51.80;;;;;;4067566;29;20051;-66
2022/08/13 07:39:54;;;;;;;3.15;1.67;;;30.10;51.50;;;;;;4063278;29;20139;-66
2022/08/13 07:41:55;;;;;;;2.85;1.45;;;30.20;52.60;;;;;;4065339;29;20116;-66
2022/08/13 07:43:58;;;;;;;4.20;1.42;;;30.20;51.90;;;;;;4064025;29;20059;-66
2022/08/13 07:46:02;;;;;;;4.30;1.88;;;30.20;51.60;;;;;;4060432;29;20088;-66
2022/08/13 07:48:04;;;;;;;2.40;1.45;;;30.20;52.50;;;;;;4064056;29;20115;-67
2022/08/13 07:50:10;;;;;;;4.18;1.55;;;30.10;52.20;;;;;;4063493;29;20043;-66
2022/08/13 07:52:13;;;;;;;3.83;1.70;;;30.30;53.50;;;;;;4064013;29;20109;-66
2022/08/13 07:54:15;;;;;;;2.40;1.50;;;30.30;52.00;;;;;;4063146;29;20036;-66
2022/08/13 07:56:18;;;;;;;2.57;1.90;;;30.30;51.50;;;;;;4065657;29;20107;-66
2022/08/13 07:58:19;;;;;;;2.63;1.50;;;30.40;51.40;;;;;;4063863;29;20296;-66
2022/08/13 08:00:29;;;;;;;3.00;1.50;;;30.40;51.40;;;;;;4062249;29;20067;-66
2022/08/13 08:02:32;;;;;;;1.92;1.17;;;30.40;50.80;;;;;;4065533;29;20071;-66
2022/08/13 08:04:35;;;;;;;1.92;1.40;;;30.50;51.60;;;;;;4064722;29;20036;-67
2022/08/13 08:06:36;;;;;;;1.90;1.35;;;30.50;50.70;;;;;;4066454;29;20735;-66
2022/08/13 08:08:40;;;;;;;2.17;1.70;;;30.60;50.70;;;;;;4067881;29;20075;-66
2022/08/13 08:10:41;;;;;;;2.22;1.40;;;30.50;51.60;;;;;;4066179;29;20036;-66
2022/08/13 08:12:42;;;;;;;1.58;1.38;;;30.60;50.30;;;;;;4065423;29;20079;-65
2022/08/13 08:14:43;;;;;;;1.85;1.40;;;30.60;51.00;;;;;;4065736;29;20036;-65
2022/08/13 08:16:45;;;;;;;2.58;1.35;;;30.70;50.90;;;;;;4066085;29;20039;-64
2022/08/13 08:18:47;;;;;;;5.80;1.80;;;30.70;50.40;;;;;;4065577;29;20511;-65
2022/08/13 08:20:48;;;;;;;2.40;1.65;;;30.80;49.80;;;;;;4073178;29;20091;-65
2022/08/13 08:22:50;;;;;;;2.17;1.48;;;30.70;50.20;;;;;;4069083;29;20391;-65
2022/08/13 08:24:51;;;;;;;2.67;1.30;;;30.70;51.00;;;;;;4073193;29;20590;-64
2022/08/13 08:26:55;;;;;;;2.15;1.20;;;30.70;49.10;;;;;;4066344;29;20028;-64
2022/08/13 08:28:57;;;;;;;2.22;1.40;;;30.80;49.10;;;;;;4072511;29;20032;-64
2022/08/13 08:30:59;;;;;;;4.03;1.30;;;30.80;49.40;;;;;;4065761;29;20024;-65
2022/08/13 08:32:59;;;;;;;2.50;1.17;;;30.90;50.30;;;;;;4052245;29;20039;-64
2022/08/13 08:35:01;;;;;;;2.28;1.60;;;30.90;50.00;;;;;;4075343;29;20036;-64
2022/08/13 08:37:03;;;;;;;1.30;1.10;;;31.00;50.10;;;;;;4064652;29;20413;-65
2022/08/13 08:43:47;;;;;;;3.33;1.40;;;31.00;49.40;;;;;;4063878;29;20091;-65
2022/08/13 08:45:48;;;;;;;1.98;1.23;;;31.10;49.40;;;;;;4067885;29;20028;-65
2022/08/13 08:47:49;;;;;;;1.85;1.00;;;31.10;49.40;;;;;;4062168;29;20127;-65
2022/08/13 08:49:55;;;;;;;2.35;1.10;;;31.10;50.00;;;;;;4065979;29;20048;-64
2022/08/13 08:51:57;;;;;;;2.25;1.25;;;31.20;48.40;;;;;;4065072;29;20075;-65
2022/08/13 08:54:00;;;;;;;1.15;1.05;;;31.30;49.40;;;;;;4065261;29;20508;-65
2022/08/13 08:56:04;;;;;;;3.40;1.17;;;31.30;50.50;;;;;;4065040;29;20075;-64
2022/08/13 08:58:07;;;;;;;2.95;1.20;;;31.40;49.50;;;;;;4065412;29;20534;-65
2022/08/13 09:00:14;;;;;;;2.38;1.40;;;31.50;49.20;;;;;;4065596;29;20042;-66
2022/08/13 09:02:20;;;;;;;1.30;1.13;;;31.50;46.80;;;;;;4065612;29;20429;-65
2022/08/13 09:04:25;;;;;;;1.10;1.00;;;31.50;46.40;;;;;;4065041;29;20067;-65
2022/08/13 09:06:28;;;;;;;4.43;1.13;;;31.40;47.60;;;;;;4065256;29;20059;-65
2022/08/13 09:08:32;;;;;;;3.53;1.80;;;31.50;48.40;;;;;;4066168;29;20131;-65
2022/08/13 09:10:36;;;;;;;2.53;1.50;;;31.50;47.10;;;;;;4065164;29;20087;-66
2022/08/13 09:12:41;;;;;;;3.13;1.63;;;31.50;47.30;;;;;;4063987;29;20056;-66
2022/08/13 09:14:43;;;;;;;2.47;1.58;;;31.50;47.90;;;;;;4065418;29;20047;-65
2022/08/13 09:16:45;;;;;;;4.97;1.70;;;31.60;47.50;;;;;;4068335;29;20043;-65
2022/08/13 09:18:48;;;;;;;2.75;1.75;;;31.60;47.90;;;;;;4067910;29;20503;-64
2022/08/13 09:20:50;;;;;;;9.18;2.20;;;31.60;48.20;;;;;;4073739;29;20044;-65
2022/08/13 09:23:07;;;;;;;3.35;2.05;;;31.70;47.50;;;;;;4065924;29;20035;-65
2022/08/13 09:25:09;;;;;;;3.55;1.70;;;31.70;48.40;;;;;;4061294;29;20071;-67
2022/08/13 09:27:10;;;;;;;3.20;1.75;;;31.70;47.00;;;;;;4065388;29;20040;-66
2022/08/13 09:29:12;;;;;;;3.17;1.70;;;31.70;47.80;;;;;;4068146;29;20079;-65
2022/08/13 09:31:13;;;;;;;;;;;31.70;48.00;;;;;;4068431;29;20138;-66
2022/08/13 09:33:13;;;;;;;2.80;1.60;;;31.80;46.90;;;;;;4064730;29;19911;-65
2022/08/13 09:35:14;;;;;;;7.88;1.90;;;31.80;47.80;;;;;;4065124;29;20047;-65
2022/08/13 09:37:15;;;;;;;4.88;1.73;;;31.90;47.90;;;;;;4064818;29;20028;-65
2022/08/13 09:39:39;;;;;;;2.97;1.70;;;31.80;46.50;;;;;;4065420;29;20266;-65
2022/08/13 09:41:51;;;;;;;2.08;1.33;;;31.70;46.60;;;;;;4063585;29;20032;-65
2022/08/13 09:43:51;;;;;;;2.60;1.27;;;31.60;46.50;;;;;;4061841;29;20086;-65
2022/08/13 09:45:52;;;;;;;1.60;1.10;;;31.50;46.30;;;;;;4063021;29;24756;-65
2022/08/13 09:47:54;;;;;;;1.65;1.20;;;31.50;45.90;;;;;;4064903;29;20040;-64
2022/08/13 09:49:55;;;;;;;2.53;1.23;;;31.50;47.20;;;;;;4064871;29;20052;-65
2022/08/13 09:51:55;;;;;;;1.40;1.20;;;31.60;46.30;;;;;;4057494;29;20036;-65
2022/08/13 09:53:56;;;;;;;2.63;1.23;;;31.60;46.60;;;;;;4050757;29;20047;-65
2022/08/13 09:55:57;;;;;;;2.15;1.08;;;31.60;47.90;;;;;;4064697;29;20032;-65
2022/08/13 09:58:02;;;;;;;2.35;1.15;;;31.70;47.40;;;;;;4068283;29;20499;-65
2022/08/13 10:00:05;;;;;;;2.92;1.20;;;31.80;45.80;;;;;;4056521;29;20074;-66
2022/08/13 10:02:12;;;;;;;3.55;1.00;;;31.80;46.40;;;;;;4053418;29;20811;-65
2022/08/13 10:04:17;;;;;;;2.45;1.15;;;31.40;45.90;;;;;;4052443;29;20031;-65
2022/08/13 10:06:18;;;;;;;1.00;0.90;;;31.30;45.90;;;;;;4052937;29;20479;-66
2022/08/13 10:08:25;;;;;;;0.90;0.80;;;31.40;46.00;;;;;;4044507;29;20400;-65
2022/08/13 10:10:26;;;;;;;4.38;0.98;;;31.50;46.60;;;;;;4057514;29;20054;-65
2022/08/13 10:12:27;;;;;;;0.70;0.70;;;31.50;45.60;;;;;;4062044;29;20039;-65
2022/08/13 10:14:27;;;;;;;1.55;0.93;;;31.60;46.80;;;;;;4075920;29;20035;-65
2022/08/13 10:16:28;;;;;;;1.33;0.93;;;31.60;46.60;;;;;;4063880;29;20051;-65
2022/08/13 10:18:31;;;;;;;1.77;0.77;;;31.70;46.90;;;;;;4061353;29;20040;-65
2022/08/13 10:20:36;;;;;;;0.93;0.90;;;31.80;46.20;;;;;;4062689;29;20040;-65
2022/08/13 10:22:36;;;;;;;2.15;1.00;;;31.70;45.40;;;;;;4061516;29;20044;-65
2022/08/13 10:24:37;;;;;;;1.50;0.80;;;31.60;46.40;;;;;;4063992;29;20407;-65
2022/08/13 10:26:40;;;;;;;2.65;0.95;;;31.70;46.90;;;;;;4073126;29;20036;-65
2022/08/13 10:28:41;;;;;;;0.80;0.80;;;31.60;46.30;;;;;;4064296;29;20032;-65
2022/08/13 10:30:42;;;;;;;1.27;0.82;;;31.50;46.00;;;;;;4061251;29;20123;-65
2022/08/13 10:32:42;;;;;;;3.75;1.27;;;31.40;46.40;;;;;;4051206;29;20123;-65
2022/08/13 10:34:44;;;;;;;1.33;0.77;;;31.40;46.50;;;;;;4076817;29;20119;-65
2022/08/13 10:36:44;;;;;;;1.95;0.85;;;31.40;46.70;;;;;;4057611;29;20381;-66
2022/08/13 10:38:46;;;;;;;0.95;0.80;;;31.30;46.40;;;;;;4051071;29;20088;-65
2022/08/13 10:40:47;;;;;;;0.80;0.80;;;31.30;46.50;;;;;;4062712;29;20036;-65
2022/08/13 10:42:48;;;;;;;1.00;0.90;;;31.40;46.30;;;;;;4063276;29;20534;-65
2022/08/13 10:44:52;;;;;;;1.77;1.17;;;31.40;46.60;;;;;;4059528;29;20124;-65
2022/08/13 10:46:52;;;;;;;1.10;1.00;;;31.30;46.40;;;;;;4062488;29;20036;-65
2022/08/13 10:48:55;;;;;;;1.50;1.10;;;31.40;47.00;;;;;;4064481;29;20451;-65
2022/08/13 10:50:56;;;;;;;1.30;1.00;;;31.40;46.70;;;;;;4064645;29;20116;-65
2022/08/13 10:52:57;;;;;;;1.05;0.80;;;31.50;47.20;;;;;;4061854;29;20036;-65
2022/08/13 10:55:00;;;;;;;1.77;0.90;;;31.50;46.40;;;;;;4064717;29;20467;-65